Time;durP1;ratioP1;P1;durP2;ratioP2;P2;SDS_P1;SDS_P2;PMS_P1;PMS_P2;Temp;Humidity;BMP_temperature;BMP_pressure;BME280_temperature;BME280_humidity;BME280_pressure;Samples;Min_cycle;Max_cycle;Signal;HPM_P1;HPM_P2
2022/04/19 00:01:03;;;;;;;7.22;2.80;;;;;;;4.53;65.27;101317.34;1750187;79;22530;-86
2022/04/19 00:03:30;;;;;;;5.62;2.60;;;;;;;4.47;65.22;101313.97;1737432;78;21084;-88
2022/04/19 00:05:57;;;;;;;4.53;2.45;;;;;;;4.41;65.31;101312.31;1739908;78;20947;-87
2022/04/19 00:08:23;;;;;;;4.92;2.55;;;;;;;4.37;65.42;101314.63;1740315;78;21778;-88
2022/04/19 00:10:50;;;;;;;6.22;2.60;;;;;;;4.31;65.47;101308.66;1739339;79;21101;-90
2022/04/19 00:13:28;;;;;;;5.80;2.70;;;;;;;4.26;65.60;101308.78;1753506;81;21762;-90
2022/04/19 00:16:11;;;;;;;5.45;2.58;;;;;;;4.21;65.79;101302.42;1748611;79;21117;-90
2022/04/19 00:18:38;;;;;;;8.18;2.77;;;;;;;4.16;65.95;101298.63;1749753;79;21605;-90
2022/04/19 00:21:07;;;;;;;6.45;2.58;;;;;;;4.10;66.26;101303.08;1734795;79;21627;-90
2022/04/19 00:23:34;;;;;;;11.38;2.72;;;;;;;4.07;66.53;101308.09;1735234;79;21579;-89
2022/04/19 00:26:01;;;;;;;8.73;3.25;;;;;;;3.99;66.65;101288.09;1735373;79;22950;-90
2022/04/19 00:28:28;;;;;;;4.47;2.25;;;;;;;3.97;66.89;101291.02;1747338;79;21081;-87
2022/04/19 00:30:54;;;;;;;6.78;2.17;;;;;;;4.10;67.18;101305.68;1742474;79;21582;-89
2022/04/19 00:33:21;;;;;;;4.83;2.30;;;;;;;4.02;67.58;101268.75;1734841;79;21334;-88
2022/04/19 00:35:48;;;;;;;7.40;2.70;;;;;;;4.27;67.56;101309.29;1735096;79;21260;-87
2022/04/19 00:38:14;;;;;;;8.48;2.67;;;;;;;4.33;67.81;101310.05;1756490;79;21856;-90
2022/04/19 00:40:41;;;;;;;6.03;2.42;;;;;;;4.40;67.84;101303.98;1734920;79;21088;-89
2022/04/19 00:43:08;;;;;;;5.40;2.50;;;;;;;4.47;67.72;101294.42;1734895;79;21340;-89
2022/04/19 00:45:36;;;;;;;8.90;2.58;;;;;;;4.55;67.69;101298.77;1682301;82;21053;-88
2022/04/19 00:48:03;;;;;;;7.75;2.50;;;;;;;4.62;67.62;101298.73;1756414;79;20989;-89
2022/04/19 00:50:31;;;;;;;5.70;2.65;;;;;;;4.70;67.66;101293.96;1735196;79;22574;-88
2022/04/19 00:53:01;;;;;;;5.20;2.25;;;;;;;4.75;67.46;101284.66;1734480;79;21000;-88
2022/04/19 00:55:27;;;;;;;8.45;2.60;;;;;;;4.79;67.28;101273.63;1757423;79;21154;-89
2022/04/19 00:57:54;;;;;;;6.42;2.27;;;;;;;4.82;67.17;101269.48;1755146;79;21140;-89
2022/04/19 01:03:45;;;;;;;6.03;2.50;;;;;;;4.78;67.03;101232.69;1752107;79;21070;-88
2022/04/19 01:06:16;;;;;;;4.87;2.35;;;;;;;4.94;67.00;101255.33;1750410;79;21548;-86
2022/04/19 01:08:44;;;;;;;6.58;2.60;;;;;;;4.98;66.86;101252.08;1784972;78;21104;-89
2022/04/19 01:13:56;;;;;;;6.20;2.55;;;;;;;5.00;66.64;101247.84;1794487;78;21664;-86
2022/04/19 01:16:24;;;;;;;5.25;2.45;;;;;;;5.02;66.59;101256.23;1793437;78;21520;-88
2022/04/19 01:18:53;;;;;;;8.05;2.45;;;;;;;5.04;66.56;101255.02;1795082;78;21030;-88
2022/04/19 01:21:20;;;;;;;7.35;2.08;;;;;;;5.04;66.43;101252.41;1772351;78;21061;-89
2022/04/19 01:23:47;;;;;;;3.67;1.90;;;;;;;5.03;66.30;101250.59;1794040;78;21050;-88
2022/04/19 01:26:13;;;;;;;10.80;2.60;;;;;;;5.02;66.28;101254.03;1793689;78;21082;-88
2022/04/19 01:28:40;;;;;;;7.17;2.35;;;;;;;5.01;66.28;101253.52;1794563;78;21774;-90
2022/04/19 01:31:07;;;;;;;8.83;2.40;;;;;;;5.00;66.31;101251.75;1793550;78;21058;-88
2022/04/19 01:33:34;;;;;;;4.90;2.20;;;;;;;5.00;66.37;101255.66;1782039;79;21065;-90
2022/04/19 01:36:00;;;;;;;7.28;2.55;;;;;;;5.00;66.40;101255.66;1785876;78;21101;-89
2022/04/19 01:38:29;;;;;;;5.47;2.67;;;;;;;4.98;66.40;101242.53;1794415;78;21101;-88
2022/04/19 01:40:55;;;;;;;7.95;2.40;;;;;;;4.99;66.38;101248.25;1795161;78;21797;-89
2022/04/19 01:43:24;;;;;;;5.30;2.70;;;;;;;5.02;66.29;101246.20;1794630;78;21053;-88
2022/04/19 01:45:51;;;;;;;10.23;2.40;;;;;;;5.05;66.22;101247.69;1793346;78;21121;-88
2022/04/19 01:48:18;;;;;;;8.78;2.42;;;;;;;5.09;66.23;101231.77;1794791;78;21208;-88
2022/04/19 01:50:45;;;;;;;11.20;3.08;;;;;;;5.12;66.20;101229.34;1795176;78;21069;-88
2022/04/19 01:53:13;;;;;;;7.17;2.60;;;;;;;5.17;66.13;101231.80;1788990;78;21630;-88
2022/04/19 01:55:47;;;;;;;4.70;2.08;;;;;;;5.21;66.17;101238.97;1783787;78;21625;-87
2022/04/19 01:58:12;;;;;;;8.78;2.65;;;;;;;5.23;66.14;101234.73;1763019;78;21248;-88
2022/04/19 02:00:39;;;;;;;8.88;2.83;;;;;;;5.26;66.15;101234.91;1760791;78;21037;-88
2022/04/19 02:03:06;;;;;;;8.43;2.40;;;;;;;5.30;66.23;101237.28;1776208;78;21167;-87
2022/04/19 02:05:33;;;;;;;7.17;2.45;;;;;;;5.31;66.29;101245.59;1792712;78;21765;-88
2022/04/19 02:08:00;;;;;;;9.28;2.90;;;;;;;5.34;66.34;101249.27;1792418;78;20958;-88
2022/04/19 02:10:27;;;;;;;9.03;2.22;;;;;;;5.38;66.40;101243.80;1792094;78;21058;-86
2022/04/19 02:12:53;;;;;;;6.70;2.70;;;;;;;5.41;66.41;101234.42;1790920;78;22015;-88
2022/04/19 02:15:20;;;;;;;12.37;2.67;;;;;;;5.43;66.37;101231.91;1792111;78;21038;-86
2022/04/19 02:17:48;;;;;;;11.12;3.12;;;;;;;5.43;66.35;101231.48;1791891;78;21842;-87
2022/04/19 02:20:16;;;;;;;3.67;2.37;;;;;;;5.43;66.35;101241.04;1793816;78;21034;-87
2022/04/19 02:22:43;;;;;;;8.88;2.80;;;;;;;5.43;66.43;101239.73;1792732;78;21897;-87
2022/04/19 02:25:15;;;;;;;13.98;3.17;;;;;;;5.42;66.48;101241.84;1754280;80;21530;-86
2022/04/19 02:27:42;;;;;;;12.25;3.05;;;;;;;5.42;66.47;101240.53;1787133;78;20994;-87
2022/04/19 02:30:14;;;;;;;8.55;2.98;;;;;;;5.41;66.54;101245.28;1792871;78;21790;-88
2022/04/19 02:32:39;;;;;;;10.78;3.62;;;;;;;5.42;66.59;101244.06;1789797;78;21695;-87
2022/04/19 02:35:06;;;;;;;11.63;3.20;;;;;;;5.44;66.69;101242.81;1791813;78;21049;-86
2022/04/19 02:37:36;;;;;;;10.80;3.02;;;;;;;5.44;66.70;101238.52;1792061;78;21538;-87
2022/04/19 02:40:01;;;;;;;19.65;3.83;;;;;;;5.44;66.69;101241.52;1791650;78;21097;-87
2022/04/19 02:42:28;;;;;;;8.68;3.25;;;;;;;5.44;66.66;101234.98;1790849;78;21956;-87
2022/04/19 02:44:57;;;;;;;11.85;3.47;;;;;;;5.42;66.75;101229.70;1791554;78;21002;-88
2022/04/19 02:47:24;;;;;;;4.30;2.72;;;;;;;5.41;66.96;101234.84;1791690;78;21070;-87
2022/04/19 02:49:55;;;;;;;8.33;2.85;;;;;;;5.40;66.92;101228.70;1788044;78;21046;-87
2022/04/19 02:52:22;;;;;;;9.00;3.45;;;;;;;5.40;67.11;101226.50;1774653;78;21175;-87
2022/04/19 02:54:49;;;;;;;5.12;2.70;;;;;;;5.42;67.02;101216.66;1772406;78;21753;-87
2022/04/19 02:57:16;;;;;;;7.33;2.85;;;;;;;5.43;66.98;101221.45;1788750;78;21635;-88
2022/04/19 02:59:43;;;;;;;8.65;3.05;;;;;;;5.47;67.01;101221.22;1766701;78;21088;-87
2022/04/19 03:02:10;;;;;;;11.48;2.47;;;;;;;5.49;67.05;101224.38;1756479;78;21137;-87
2022/04/19 03:04:37;;;;;;;8.40;3.02;;;;;;;5.50;67.21;101231.42;1784148;80;21590;-87
2022/04/19 03:07:05;;;;;;;9.45;2.80;;;;;;;5.52;67.09;101233.70;1785486;78;21768;-88
2022/04/19 03:09:33;;;;;;;11.03;3.10;;;;;;;5.55;67.15;101242.09;1756888;80;21085;-89
2022/04/19 03:12:00;;;;;;;7.30;2.70;;;;;;;5.57;67.16;101236.54;1784415;78;22363;-88
2022/04/19 03:14:27;;;;;;;10.08;3.10;;;;;;;5.57;67.23;101238.73;1776764;78;21161;-89
2022/04/19 03:16:54;;;;;;;9.35;2.72;;;;;;;5.58;67.21;101240.55;1771106;78;21141;-90
2022/04/19 03:19:20;;;;;;;6.78;2.85;;;;;;;5.58;67.27;101238.34;1784586;78;21774;-90
2022/04/19 03:21:47;;;;;;;5.80;2.47;;;;;;;5.56;67.33;101230.42;1784675;78;21058;-90
2022/04/19 03:32:23;;;;;;;5.85;2.80;;;;;;;5.56;67.64;101223.90;1733652;81;21121;-89
2022/04/19 03:34:50;;;;;;;6.85;3.05;;;;;;;5.57;67.58;101216.53;1784896;78;21058;-88
2022/04/19 03:37:19;;;;;;;13.72;2.83;;;;;;;5.58;67.65;101222.27;1785696;78;21046;-87
2022/04/19 03:39:46;;;;;;;7.90;2.98;;;;;;;5.59;67.64;101219.23;1786211;78;21625;-87
2022/04/19 03:42:13;;;;;;;6.83;3.27;;;;;;;5.60;67.65;101220.63;1785668;78;21066;-88
2022/04/19 03:44:39;;;;;;;8.38;3.47;;;;;;;5.59;67.69;101225.38;1784967;78;21922;-88
2022/04/19 03:47:10;;;;;;;7.17;3.12;;;;;;;5.60;67.67;101225.84;1767685;78;21078;-89
2022/04/19 03:49:38;;;;;;;5.60;2.58;;;;;;;5.61;67.69;101243.71;1755301;78;21673;-88
2022/04/19 03:52:11;;;;;;;12.23;3.55;;;;;;;5.61;67.72;101246.33;1763360;78;21077;-89
2022/04/19 03:54:37;;;;;;;6.70;2.92;;;;;;;5.61;67.70;101247.25;1767701;78;21010;-88
2022/04/19 03:57:08;;;;;;;5.08;2.85;;;;;;;5.64;67.73;101240.86;1768312;78;21800;-88
2022/04/19 03:59:38;;;;;;;8.08;3.17;;;;;;;5.68;67.67;101242.34;1773175;78;21073;-85
2022/04/19 04:02:08;;;;;;;8.63;3.30;;;;;;;5.71;67.64;101233.37;1759199;78;22388;-85
2022/04/19 04:04:36;;;;;;;9.08;3.10;;;;;;;5.74;67.66;101233.51;1787728;78;21117;-85
2022/04/19 04:07:09;;;;;;;5.87;3.27;;;;;;;5.77;67.67;101224.12;1787428;78;22179;-86
2022/04/19 04:09:41;;;;;;;8.00;3.45;;;;;;;5.79;67.71;101229.01;1785968;78;21866;-87
2022/04/19 04:12:11;;;;;;;7.80;3.08;;;;;;;5.83;67.68;101237.48;1785952;78;21069;-84
2022/04/19 04:14:39;;;;;;;7.60;3.87;;;;;;;5.88;67.75;101241.66;1764974;78;21061;-87
2022/04/19 04:17:06;;;;;;;6.97;3.12;;;;;;;5.93;67.72;101241.88;1758376;80;21082;-87
2022/04/19 04:19:35;;;;;;;6.28;3.12;;;;;;;5.97;67.59;101242.59;1777432;77;21073;-87
2022/04/19 04:22:03;;;;;;;7.78;2.98;;;;;;;6.01;67.61;101244.54;1768721;78;21809;-85
2022/04/19 04:24:30;;;;;;;5.92;3.58;;;;;;;6.05;67.51;101248.21;1763330;78;21715;-83
2022/04/19 04:26:56;;;;;;;7.10;3.37;;;;;;;6.08;67.51;101249.27;1782884;78;21062;-86
2022/04/19 04:29:23;;;;;;;9.18;3.08;;;;;;;6.11;67.45;101257.24;1764877;78;21113;-83
2022/04/19 04:31:50;;;;;;;6.12;3.33;;;;;;;6.13;67.43;101268.67;1772047;78;21132;-84
2022/04/19 04:34:17;;;;;;;7.17;3.65;;;;;;;6.14;67.37;101264.36;1769992;78;22596;-84
2022/04/19 04:36:43;;;;;;;7.87;3.92;;;;;;;6.15;67.38;101262.22;1765832;78;21576;-85
2022/04/19 04:39:10;;;;;;;6.30;3.58;;;;;;;6.18;67.33;101255.86;1784637;78;21081;-87
2022/04/19 04:41:37;;;;;;;7.80;3.37;;;;;;;6.24;67.37;101253.54;1771687;78;21728;-85
2022/04/19 04:44:05;;;;;;;6.60;3.50;;;;;;;6.26;67.24;101253.20;1777440;80;21118;-84
2022/04/19 04:49:37;;;;;;;7.20;3.60;;;;;;;6.37;67.12;101262.91;1755037;80;21013;-84
2022/04/19 04:52:11;;;;;;;8.65;3.95;;;;;;;6.40;67.07;101269.58;1754863;80;21082;-84
2022/04/19 04:54:43;;;;;;;7.75;4.55;;;;;;;6.45;67.08;101276.36;1768027;78;21117;-86
2022/04/19 04:57:12;;;;;;;7.75;4.30;;;;;;;6.49;67.03;101270.45;1756559;79;21101;-85
2022/04/19 04:59:39;;;;;;;8.08;4.03;;;;;;;6.51;66.96;101273.63;1756042;80;21767;-84
2022/04/19 05:02:09;;;;;;;11.50;4.40;;;;;;;6.54;66.99;101272.48;1756130;78;21506;-84
2022/04/19 05:04:35;;;;;;;10.65;3.90;;;;;;;6.59;66.95;101275.34;1784732;78;21148;-85
2022/04/19 05:07:02;;;;;;;8.20;4.35;;;;;;;6.62;66.83;101278.08;1786153;78;21298;-84
2022/04/19 05:09:29;;;;;;;6.22;4.00;;;;;;;6.62;66.76;101274.16;1773873;78;21736;-84
2022/04/19 05:11:56;;;;;;;8.13;4.08;;;;;;;6.68;66.76;101282.33;1777711;79;21652;-92
2022/04/19 05:14:32;;;;;;;7.42;4.12;;;;;;;6.73;66.63;101279.93;1711762;78;21177;-95
2022/04/19 05:17:02;;;;;;;6.97;3.62;;;;;;;6.81;66.43;101279.88;1654807;83;21074;-96
2022/04/19 05:19:31;;;;;;;7.75;3.25;;;;;;;6.85;66.21;101291.01;1725085;81;21091;-95
2022/04/19 05:21:56;;;;;;;8.83;3.98;;;;;;;6.89;65.92;101282.48;1746876;81;21497;-91
2022/04/19 05:24:25;;;;;;;5.67;3.30;;;;;;;6.91;65.77;101282.14;1746156;80;21761;-92
2022/04/19 05:26:51;;;;;;;7.45;3.70;;;;;;;6.96;65.62;101282.34;1763989;80;21058;-92
2022/04/19 05:29:18;;;;;;;4.50;3.20;;;;;;;6.99;65.52;101275.53;1758870;78;21566;-94
2022/04/19 05:31:45;;;;;;;3.80;2.50;;;;;;;7.04;65.37;101278.78;1769524;78;22346;-90
2022/04/19 05:34:12;;;;;;;3.83;2.62;;;;;;;7.05;65.33;101267.08;1766900;78;21077;-91
2022/04/19 05:36:39;;;;;;;4.22;2.37;;;;;;;7.11;65.24;101263.44;1763488;78;22436;-86
2022/04/19 05:39:05;;;;;;;4.33;2.60;;;;;;;7.20;65.23;101266.91;1768472;78;20981;-85
2022/04/19 05:41:35;;;;;;;5.47;2.87;;;;;;;7.29;65.16;101269.08;1770711;78;21055;-86
2022/04/19 05:44:01;;;;;;;3.87;2.40;;;;;;;7.37;64.99;101263.77;1765446;78;21077;-86
2022/04/19 05:46:30;;;;;;;4.00;2.42;;;;;;;7.49;64.83;101269.97;1764387;78;21006;-93
2022/04/19 05:49:00;;;;;;;7.22;2.10;;;;;;;7.60;64.58;101275.28;1777813;78;21036;-94
2022/04/19 05:51:27;;;;;;;3.60;2.27;;;;;;;7.72;64.09;101265.80;1777888;78;21038;-95
2022/04/19 05:53:55;;;;;;;4.15;2.15;;;;;;;7.82;63.74;101271.91;1782470;78;21053;-95
2022/04/19 05:56:23;;;;;;;4.47;1.87;;;;;;;7.91;63.34;101276.25;1774871;78;21075;-92
2022/04/19 05:58:49;;;;;;;7.42;2.20;;;;;;;8.01;63.00;101271.42;1767775;78;20989;-93
2022/04/19 06:01:18;;;;;;;5.45;2.35;;;;;;;8.08;62.52;101280.92;1782259;78;21757;-94
2022/04/19 06:06:39;;;;;;;6.58;2.37;;;;;;;8.23;61.76;101280.69;1770157;78;20947;-94
2022/04/19 06:09:05;;;;;;;8.18;4.85;;;;;;;8.29;61.48;101286.62;1769774;78;21245;-94
2022/04/19 06:11:31;;;;;;;6.00;3.77;;;;;;;8.33;61.19;101276.34;1778409;78;21073;-94
2022/04/19 06:14:02;;;;;;;5.78;3.27;;;;;;;8.40;60.96;101286.66;1779973;78;21108;-94
2022/04/19 06:16:30;;;;;;;5.10;2.87;;;;;;;8.46;60.57;101298.75;1756904;80;20970;-93
2022/04/19 06:18:57;;;;;;;5.58;2.75;;;;;;;8.49;60.14;101282.27;1770764;78;21089;-91
2022/04/19 06:21:24;;;;;;;4.90;2.65;;;;;;;8.54;59.97;101287.30;1745672;78;21165;-91
2022/04/19 06:23:51;;;;;;;5.75;2.60;;;;;;;8.62;59.67;101293.75;1779709;78;21065;-91
2022/04/19 06:26:19;;;;;;;6.67;2.52;;;;;;;8.71;59.23;101322.11;1775061;78;21061;-93
2022/04/19 06:28:46;;;;;;;5.75;2.70;;;;;;;8.76;59.11;101299.55;1777568;78;21081;-93
2022/04/19 06:31:21;;;;;;;4.53;2.92;;;;;;;8.81;58.72;101304.58;1770600;78;21113;-91
2022/04/19 06:33:47;;;;;;;4.15;2.90;;;;;;;8.83;58.34;101302.91;1782912;78;21054;-93
2022/04/19 06:36:16;;;;;;;3.58;2.65;;;;;;;8.92;58.09;101307.23;1774696;78;21109;-92
2022/04/19 06:38:43;;;;;;;5.78;2.67;;;;;;;8.95;57.69;101298.56;1769188;78;21770;-92
2022/04/19 06:41:11;;;;;;;7.58;2.85;;;;;;;9.04;57.75;101289.75;1761704;78;22233;-91
2022/04/19 06:43:38;;;;;;;10.08;2.65;;;;;;;9.20;57.72;101296.95;1765065;78;20994;-93
2022/04/19 06:46:04;;;;;;;5.62;2.50;;;;;;;9.31;57.31;101302.20;1783577;78;21077;-90
2022/04/19 06:48:31;;;;;;;10.55;2.90;;;;;;;9.46;57.22;101315.00;1769052;78;21564;-91
2022/04/19 06:50:58;;;;;;;6.40;3.80;;;;;;;9.60;57.01;101313.81;1768382;78;21758;-91
2022/04/19 06:53:29;;;;;;;9.08;5.40;;;;;;;9.75;56.77;101308.23;1768798;78;21062;-91
2022/04/19 06:55:54;;;;;;;7.95;4.35;;;;;;;10.05;56.73;101304.52;1767695;78;21050;-91
2022/04/19 06:58:21;;;;;;;5.37;3.62;;;;;;;10.22;55.95;101302.48;1766991;78;21081;-91
2022/04/19 07:00:47;;;;;;;7.60;2.80;;;;;;;10.26;55.38;101300.43;1772778;78;21065;-91
2022/04/19 07:03:14;;;;;;;4.28;2.60;;;;;;;10.45;55.42;101306.37;1774164;78;21845;-92
2022/04/19 07:05:41;;;;;;;5.67;3.00;;;;;;;10.70;55.07;101308.11;1761172;78;21080;-92
2022/04/19 07:08:08;;;;;;;4.33;3.02;;;;;;;10.80;54.56;101310.20;1726658;80;21062;-92
2022/04/19 07:10:35;;;;;;;3.72;2.90;;;;;;;10.86;54.16;101323.98;1761133;78;21113;-93
2022/04/19 07:13:04;;;;;;;3.83;2.12;;;;;;;10.72;53.72;101287.08;1780727;80;21073;-93
2022/04/19 07:15:31;;;;;;;3.00;2.22;;;;;;;10.68;53.61;101277.78;1775468;78;22467;-94
2022/04/19 07:18:09;;;;;;;5.33;2.00;;;;;;;10.68;53.45;101307.17;1776700;78;21069;-93
2022/04/19 07:28:50;;;;;;;4.45;2.70;;;;;;;10.54;52.28;101321.16;1782971;78;21856;-91
2022/04/19 07:31:17;;;;;;;6.22;2.65;;;;;;;10.45;52.53;101318.22;1772861;78;21041;-95
2022/04/19 07:33:57;;;;;;;4.83;2.10;;;;;;;10.63;52.70;101321.48;1778187;78;21108;-91
2022/04/19 07:36:24;;;;;;;4.62;2.65;;;;;;;10.77;52.28;101321.93;1785435;78;21400;-94
2022/04/19 07:38:51;;;;;;;3.67;2.12;;;;;;;10.76;52.44;101316.64;1785961;78;21591;-92
2022/04/19 07:41:18;;;;;;;4.62;2.30;;;;;;;10.94;52.44;101317.22;1773395;78;21764;-95
2022/04/19 07:43:47;;;;;;;4.25;2.52;;;;;;;11.06;52.15;101312.79;1784272;78;21046;-93
2022/04/19 07:46:15;;;;;;;5.22;2.37;;;;;;;11.01;51.81;101315.26;1772580;78;21664;-91
2022/04/19 07:48:44;;;;;;;4.87;2.33;;;;;;;10.97;51.67;101324.34;1770091;78;21658;-90
2022/04/19 07:51:11;;;;;;;3.62;2.33;;;;;;;11.00;51.73;101322.70;1778231;78;21088;-90
2022/04/19 07:53:38;;;;;;;3.62;2.45;;;;;;;11.03;51.54;101326.73;1775214;78;21768;-90
2022/04/19 07:56:05;;;;;;;4.05;2.47;;;;;;;11.07;51.55;101330.37;1790895;78;21182;-90
2022/04/19 07:58:32;;;;;;;6.72;2.75;;;;;;;11.13;51.50;101320.45;1790256;75;21182;-90
2022/04/19 08:00:59;;;;;;;3.42;2.30;;;;;;;11.32;51.82;101324.16;1788031;78;20948;-91
2022/04/19 08:03:53;;;;;;;3.83;2.60;;;;;;;11.51;51.46;101325.61;1782952;78;21125;-89
2022/04/19 08:06:28;;;;;;;4.60;2.90;;;;;;;11.62;51.56;101321.98;1742712;81;21787;-90
2022/04/19 08:08:56;;;;;;;3.58;2.70;;;;;;;11.72;51.30;101331.06;1796089;78;21054;-90
2022/04/19 08:11:27;;;;;;;4.62;3.22;;;;;;;11.67;51.13;101319.03;1781035;78;21690;-92
2022/04/19 08:13:56;;;;;;;4.80;3.07;;;;;;;11.65;51.01;101322.05;1780047;78;21070;-90
2022/04/19 08:16:23;;;;;;;4.45;2.65;;;;;;;11.64;51.00;101324.24;1778860;78;21082;-92
2022/04/19 08:18:53;;;;;;;4.10;2.37;;;;;;;11.61;50.57;101317.55;1750855;79;21771;-91
2022/04/19 08:21:19;;;;;;;3.80;2.70;;;;;;;11.54;50.60;101320.41;1773152;78;21054;-90
2022/04/19 08:23:46;;;;;;;2.02;1.82;;;;;;;11.70;50.88;101319.14;1773433;78;21053;-91
2022/04/19 08:26:14;;;;;;;2.67;1.90;;;;;;;11.98;50.88;101316.02;1767850;78;21144;-90
2022/04/19 08:28:44;;;;;;;3.25;2.00;;;;;;;12.20;50.71;101321.05;1782085;78;20982;-89
2022/04/19 08:31:11;;;;;;;4.08;2.30;;;;;;;12.42;50.54;101310.61;1788543;78;21665;-90
2022/04/19 08:33:39;;;;;;;2.72;2.10;;;;;;;12.54;50.21;101312.70;1787278;78;21350;-90
2022/04/19 08:36:06;;;;;;;3.27;2.30;;;;;;;12.63;50.15;101316.91;1779994;78;21116;-89
2022/04/19 08:38:34;;;;;;;2.98;2.10;;;;;;;12.62;49.77;101323.46;1775077;78;21069;-90
2022/04/19 08:41:03;;;;;;;2.72;2.02;;;;;;;12.48;49.66;101320.88;1784871;78;21504;-91
2022/04/19 08:43:30;;;;;;;3.20;2.22;;;;;;;12.30;49.43;101316.91;1790895;78;21795;-92
2022/04/19 08:45:57;;;;;;;2.62;2.05;;;;;;;12.27;49.90;101323.84;1779215;78;21076;-91
2022/04/19 08:48:26;;;;;;;3.55;2.12;;;;;;;12.36;49.63;101334.22;1768543;78;21089;-90
2022/04/19 08:50:54;;;;;;;3.17;2.30;;;;;;;12.12;49.09;101347.62;1773808;78;21674;-91
2022/04/19 08:58:55;;;;;;;6.60;3.00;;;;;;;11.93;50.25;101339.62;1758329;80;21099;-90
2022/04/19 09:01:22;;;;;;;6.45;3.55;;;;;;;11.80;50.32;101334.80;1775189;78;21137;-91
2022/04/19 09:04:04;;;;;;;;;;;;;;;;;;;;;
2022/04/19 09:06:26;;;;;;;;;;;;;;;11.83;51.00;101333.16;1767018;78;21145;-90
2022/04/19 09:09:12;;;;;;;4.97;2.90;;;;;;;12.04;50.69;101345.21;1758111;78;22593;-91
2022/04/19 09:11:43;;;;;;;4.55;3.00;;;;;;;12.08;50.20;101336.96;1759703;78;21101;-91
2022/04/19 09:14:12;;;;;;;3.20;2.55;;;;;;;12.15;50.06;101343.77;1756537;78;21695;-91
2022/04/19 09:16:45;;;;;;;5.80;2.70;;;;;;;12.21;49.86;101338.65;1763523;79;21080;-89
2022/04/19 09:19:29;;;;;;;5.70;3.02;;;;;;;12.13;49.41;101349.44;1744888;78;21843;-90
2022/04/19 09:21:59;;;;;;;6.10;3.83;;;;;;;11.97;49.58;101353.36;1778438;78;22448;-91
2022/04/19 09:24:27;;;;;;;6.40;3.02;;;;;;;11.86;50.10;101361.35;1716043;78;21333;-91
2022/04/19 09:26:56;;;;;;;7.22;3.27;;;;;;;11.94;50.53;101351.97;1780999;78;21532;-91
2022/04/19 09:29:26;;;;;;;4.20;2.83;;;;;;;11.95;50.63;101352.42;1777653;78;21070;-90
2022/04/19 09:32:02;;;;;;;3.98;2.92;;;;;;;11.96;50.90;101366.10;1732089;80;21113;-91
2022/04/19 09:34:37;;;;;;;4.00;2.70;;;;;;;12.06;51.18;101357.59;1768808;78;21097;-91
2022/04/19 09:37:19;;;;;;;4.08;3.45;;;;;;;11.98;50.93;101323.94;1758379;78;21113;-92
2022/04/19 09:40:00;;;;;;;4.22;2.95;;;;;;;11.94;50.63;101352.41;1772165;78;21146;-90
2022/04/19 09:42:21;;;;;;;7.05;3.60;;;;;;;11.74;50.58;101365.84;1754260;78;21070;-91
2022/04/19 09:44:51;;;;;;;6.35;3.42;;;;;;;11.67;50.68;101358.20;1780346;78;21313;-92
2022/04/19 09:47:22;;;;;;;5.97;3.00;;;;;;;11.50;50.80;101342.69;1782315;78;21742;-91
2022/04/19 09:49:56;;;;;;;3.67;2.77;;;;;;;11.71;50.95;101366.17;1781582;78;21079;-91
2022/04/19 09:52:29;;;;;;;4.58;2.62;;;;;;;11.80;50.92;101377.89;1753471;80;21062;-90
2022/04/19 09:55:09;;;;;;;5.33;3.03;;;;;;;11.81;50.88;101369.14;1772422;78;21623;-89
2022/04/19 09:57:40;;;;;;;5.28;3.33;;;;;;;11.80;50.60;101373.05;1779068;78;21089;-90
2022/04/19 10:00:12;;;;;;;6.95;2.87;;;;;;;11.66;50.72;101376.60;1736898;78;21781;-90
2022/04/19 10:08:21;;;;;;;5.12;3.20;;;;;;;11.55;51.19;101374.95;1751138;80;21092;-90
2022/04/19 10:10:58;;;;;;;7.37;3.20;;;;;;;11.84;51.31;101383.76;1746729;80;21065;-90
2022/04/19 10:13:31;;;;;;;4.75;3.02;;;;;;;11.96;50.76;101367.85;1762932;78;21624;-89
2022/04/19 10:15:57;;;;;;;4.00;2.85;;;;;;;12.00;50.50;101373.69;1769552;78;20997;-90
2022/04/19 10:18:26;;;;;;;3.70;2.72;;;;;;;11.89;50.21;101375.97;1769212;78;21110;-90
2022/04/19 10:21:01;;;;;;;7.12;3.45;;;;;;;11.92;50.49;101373.86;1742442;80;22320;-89
2022/04/19 10:23:40;;;;;;;8.60;3.20;;;;;;;11.95;50.44;101376.17;1757789;78;21517;-91
2022/04/19 10:26:29;;;;;;;3.35;2.75;;;;;;;11.99;50.56;101376.75;1757892;78;21615;-90
2022/04/19 10:29:01;;;;;;;5.20;2.60;;;;;;;12.04;50.40;101379.08;1713229;80;21560;-90
2022/04/19 10:31:34;;;;;;;4.00;2.80;;;;;;;12.00;50.08;101375.00;1716369;80;21086;-89
2022/04/19 10:34:12;;;;;;;5.70;3.40;;;;;;;12.00;50.16;101376.32;1769249;78;21080;-89
2022/04/19 10:37:00;;;;;;;5.42;3.25;;;;;;;12.10;50.52;101386.28;1780815;78;21098;-91
2022/04/19 10:40:22;;;;;;;3.70;2.92;;;;;;;12.25;50.28;101378.79;1768337;78;21027;-91
2022/04/19 10:43:22;;;;;;;5.53;3.08;;;;;;;12.28;49.65;101383.28;1738371;80;21113;-91
2022/04/19 10:45:48;;;;;;;6.80;3.37;;;;;;;12.14;49.84;101389.47;1766127;78;21054;-90
2022/04/19 10:48:20;;;;;;;6.53;3.22;;;;;;;12.22;49.67;101377.41;1761655;78;21526;-90
2022/04/19 10:50:50;;;;;;;3.02;2.72;;;;;;;12.11;49.40;101388.08;1760007;78;21149;-89
2022/04/19 10:53:14;;;;;;;4.90;3.05;;;;;;;11.98;48.99;101384.19;1761142;78;22640;-90
2022/04/19 10:56:06;;;;;;;3.47;2.83;;;;;;;11.89;49.45;101389.59;1777599;78;21073;-88
2022/04/19 10:58:44;;;;;;;4.90;3.40;;;;;;;11.86;49.37;101386.02;1775994;78;21475;-91
2022/04/19 11:01:30;;;;;;;4.28;2.72;;;;;;;11.81;49.60;101382.77;1773479;78;21045;-93
2022/04/19 11:03:57;;;;;;;9.43;3.72;;;;;;;11.87;49.61;101386.46;1783780;78;21122;-90
2022/04/19 11:06:47;;;;;;;7.30;3.75;;;;;;;11.96;49.77;101388.95;1787262;78;22601;-92
2022/04/19 11:09:20;;;;;;;5.70;3.27;;;;;;;12.03;49.81;101403.70;1776264;78;21049;-94
2022/04/19 11:11:54;;;;;;;6.65;3.45;;;;;;;12.00;49.45;101388.20;1780659;79;20994;-94
2022/04/19 11:14:48;;;;;;;6.83;3.62;;;;;;;12.00;49.46;101385.55;1761965;78;21109;-94
2022/04/19 11:17:58;;;;;;;5.05;3.25;;;;;;;11.92;49.38;101384.41;1737098;79;21085;-94
2022/04/19 11:23:49;;;;;;;;;;;;;;;;;;;;;
2022/04/19 11:26:29;;;;;;;5.60;3.47;;;;;;;11.87;49.57;101385.14;1636495;86;21731;-94
2022/04/19 11:29:16;;;;;;;5.90;3.80;;;;;;;11.99;49.38;101388.63;1652584;84;21123;-91
2022/04/19 11:31:55;;;;;;;6.65;3.65;;;;;;;12.16;49.56;101381.60;1648198;84;21368;-92
2022/04/19 11:34:38;;;;;;;;;;;;;;;;;;;;;
2022/04/19 11:37:04;;;;;;;5.92;3.20;;;;;;;12.27;49.02;101384.12;1603585;87;21137;-93
2022/04/19 11:48:26;;;;;;;6.75;4.05;;;;;;;11.95;49.13;101386.72;1656278;84;21088;-92
2022/04/19 11:51:15;;;;;;;5.87;3.58;;;;;;;11.96;49.34;101379.73;1643673;84;80200;-91
2022/04/19 11:53:43;;;;;;;5.87;4.58;;;;;;;11.97;48.84;101374.90;1588939;90;21185;-94
2022/04/19 11:56:16;;;;;;;6.78;4.55;;;;;;;11.89;49.01;101379.92;1588968;89;21056;-91
2022/04/19 11:58:52;;;;;;;4.60;4.10;;;;;;;11.73;48.83;101381.22;1568079;89;21965;-90
2022/04/19 12:01:49;;;;;;;4.85;4.22;;;;;;;11.64;49.14;101378.30;1589132;88;22223;-91
2022/04/19 12:04:17;;;;;;;9.78;5.05;;;;;;;11.53;49.26;101385.87;1593202;89;21174;-89
2022/04/19 12:07:01;;;;;;;8.50;5.53;;;;;;;11.44;49.42;101375.92;1590046;89;21034;-87
2022/04/19 12:09:29;;;;;;;6.67;4.80;;;;;;;11.46;49.62;101375.97;1605849;88;21073;-85
2022/04/19 12:12:16;;;;;;;;;;;;;;;;;;;;;
2022/04/19 12:15:16;;;;;;;;;;;;;;;;;;;;;
2022/04/19 12:17:48;;;;;;;5.97;4.28;;;;;;;11.61;49.69;101379.52;1561002;88;21153;-88
2022/04/19 12:20:14;;;;;;;9.38;5.58;;;;;;;11.61;49.66;101381.72;1652736;84;21074;-86
2022/04/19 12:22:47;;;;;;;6.65;4.90;;;;;;;11.56;49.79;101378.06;1655145;85;21114;-87
2022/04/19 12:25:23;;;;;;;7.12;4.58;;;;;;;11.53;49.50;101376.64;1656129;84;21121;-86
2022/04/19 12:28:00;;;;;;;6.05;4.67;;;;;;;11.53;49.93;101381.91;1656099;85;21770;-85
2022/04/19 12:30:29;;;;;;;6.05;4.72;;;;;;;11.64;50.17;101379.19;1644908;84;21126;-85
2022/04/19 12:33:08;;;;;;;7.35;5.12;;;;;;;11.72;50.23;101378.09;1639257;84;21201;-84
2022/04/19 12:35:37;;;;;;;7.30;4.45;;;;;;;11.79;50.23;101382.72;1663039;85;21109;-88
2022/04/19 12:38:18;;;;;;;5.12;3.77;;;;;;;11.90;50.27;101377.80;1654882;86;21987;-87
2022/04/19 12:40:53;;;;;;;5.75;4.00;;;;;;;11.71;50.00;101342.44;1654111;85;21721;-87
2022/04/19 12:43:20;;;;;;;5.17;3.62;;;;;;;11.93;50.10;101387.54;1662954;85;21642;-86